Time;durP1;ratioP1;P1;durP2;ratioP2;P2;SDS_P1;SDS_P2;PMS_P1;PMS_P2;Temp;Humidity;BMP_temperature;BMP_pressure;BME280_temperature;BME280_humidity;BME280_pressure;Samples;Min_cycle;Max_cycle;Signal;HPM_P1;HPM_P2
2021/08/09 00:00:02;;;;;;;7.55;3.72;;;;;;;16.90;67.39;101100.34;10516683;28;20407;-83
2021/08/09 00:05:03;;;;;;;10.98;5.60;;;;;;;17.54;67.04;101201.00;10497331;28;20031;-83
2021/08/09 00:10:04;;;;;;;8.40;4.85;;;;;;;17.68;67.18;101238.06;10514841;28;20035;-83
2021/08/09 00:15:05;;;;;;;13.13;3.83;;;;;;;17.71;66.82;101228.53;10532446;28;20071;-83
2021/08/09 00:20:06;;;;;;;12.25;5.53;;;;;;;17.48;68.01;101230.16;10498683;28;20062;-83
2021/08/09 00:25:07;;;;;;;12.98;5.30;;;;;;;17.63;68.75;101224.25;10534030;28;20036;-84
2021/08/09 00:30:08;;;;;;;18.38;5.13;;;;;;;17.63;68.08;101213.28;10533653;28;20115;-82
2021/08/09 00:35:09;;;;;;;19.02;5.95;;;;;;;17.15;68.26;101127.53;10499066;28;20120;-83
2021/08/09 00:40:10;;;;;;;17.08;4.05;;;;;;;16.72;67.37;101059.41;10518231;28;20100;-83
2021/08/09 00:45:11;;;;;;;17.23;3.88;;;;;;;17.83;68.90;101254.06;10498974;28;20173;-83
2021/08/09 00:50:11;;;;;;;18.88;4.45;;;;;;;16.92;67.32;101072.78;10522340;28;20036;-83
2021/08/09 00:55:12;;;;;;;8.98;4.05;;;;;;;17.74;67.69;101236.25;10505650;28;20042;-84
2021/08/09 01:00:12;;;;;;;13.98;4.43;;;;;;;17.52;68.05;101230.53;10505598;28;20115;-83
2021/08/09 01:05:13;;;;;;;20.38;3.58;;;;;;;17.44;68.60;101216.09;10521350;28;20032;-84
2021/08/09 01:10:20;;;;;;;12.15;3.53;;;;;;;16.94;68.74;101152.69;10539716;28;20179;-83
2021/08/09 01:15:24;;;;;;;20.75;5.20;;;;;;;17.35;68.20;101213.94;10505201;28;20523;-83
2021/08/09 01:20:49;;;;;;;13.73;5.28;;;;;;;17.66;69.86;101265.69;10521662;28;20368;-84
2021/08/09 01:26:00;;;;;;;8.23;4.15;;;;;;;17.11;69.20;101159.16;10504864;28;20123;-84
2021/08/09 01:31:01;;;;;;;30.70;4.60;;;;;;;17.79;67.54;101252.88;10521292;28;20376;-83
2021/08/09 01:36:02;;;;;;;17.30;5.50;;;;;;;16.79;68.98;101123.06;10538063;28;20043;-84
2021/08/09 01:41:02;;;;;;;22.35;4.03;;;;;;;17.23;68.21;101181.09;10520376;28;20486;-83
2021/08/09 01:46:03;;;;;;;6.60;3.97;;;;;;;17.68;68.04;101257.25;10517913;28;20122;-83
2021/08/09 01:51:05;;;;;;;12.43;5.57;;;;;;;17.64;66.86;101272.47;10501051;28;20414;-84
2021/08/09 01:56:06;;;;;;;16.60;4.18;;;;;;;17.48;67.59;101279.44;10499648;28;20436;-84
2021/08/09 02:01:06;;;;;;;16.10;5.10;;;;;;;17.40;68.09;101272.41;10499753;28;20035;-83
2021/08/09 02:06:07;;;;;;;14.60;3.63;;;;;;;17.27;66.88;101237.03;10515224;28;20116;-84
2021/08/09 02:11:15;;;;;;;25.95;4.53;;;;;;;17.31;67.53;101276.53;10515043;28;20036;-84
2021/08/09 02:16:20;;;;;;;20.67;5.25;;;;;;;17.31;67.82;101278.44;10497441;28;20052;-84
2021/08/09 02:21:24;;;;;;;5.45;3.10;;;;;;;17.37;67.22;101274.78;10531767;28;20044;-83
2021/08/09 02:26:36;;;;;;;16.55;4.70;;;;;;;17.09;67.62;101258.97;10512653;28;20031;-84
2021/08/09 02:31:36;;;;;;;13.48;4.32;;;;;;;15.46;68.04;101003.69;10480060;28;20141;-84
2021/08/09 02:36:37;;;;;;;7.20;3.83;;;;;;;17.25;67.49;101271.16;10496087;28;20101;-83
2021/08/09 02:41:38;;;;;;;18.85;3.95;;;;;;;17.24;67.70;101286.75;10505821;28;20043;-84
2021/08/09 02:46:41;;;;;;;15.95;5.45;;;;;;;17.04;68.42;101256.09;10506663;28;20032;-83
2021/08/09 02:51:41;;;;;;;6.63;3.65;;;;;;;15.66;68.62;101052.56;10506073;28;20143;-83
2021/08/09 02:56:42;;;;;;;13.80;4.50;;;;;;;17.06;69.16;101282.16;10524778;28;20042;-84
2021/08/09 03:01:42;;;;;;;11.20;3.95;;;;;;;17.16;68.04;101273.38;10506106;28;20036;-84
2021/08/09 03:06:43;;;;;;;8.18;4.60;;;;;;;16.04;68.49;101096.88;10504429;28;20459;-84
2021/08/09 03:11:43;;;;;;;15.45;4.50;;;;;;;17.18;68.21;101279.47;10506251;28;20051;-84
2021/08/09 03:16:44;;;;;;;18.42;5.78;;;;;;;17.13;68.98;101285.66;10505409;28;20530;-84
2021/08/09 03:21:54;;;;;;;25.00;4.85;;;;;;;16.93;69.31;101266.75;10504494;28;20031;-83
2021/08/09 03:26:55;;;;;;;12.13;4.32;;;;;;;15.81;68.42;101067.56;10538491;28;20044;-84
2021/08/09 03:31:55;;;;;;;26.13;6.03;;;;;;;16.79;68.68;101237.09;10503790;28;20088;-83
2021/08/09 03:36:56;;;;;;;8.52;3.88;;;;;;;17.09;68.95;101278.13;10520354;28;20055;-83
2021/08/09 03:41:56;;;;;;;14.85;4.60;;;;;;;17.17;68.75;101278.66;10521223;28;20028;-83
2021/08/09 03:46:57;;;;;;;13.90;4.00;;;;;;;16.13;69.71;101160.25;10518999;28;20116;-84
2021/08/09 03:51:57;;;;;;;14.65;5.55;;;;;;;16.95;69.84;101283.78;10501824;28;20485;-84
2021/08/09 03:56:58;;;;;;;16.10;6.18;;;;;;;17.04;69.65;101283.44;10517230;28;20036;-83
2021/08/09 04:01:58;;;;;;;15.18;5.10;;;;;;;16.87;69.04;101240.31;10535600;28;20092;-83
2021/08/09 04:06:58;;;;;;;18.08;5.22;;;;;;;17.05;69.01;101294.19;10516052;28;20028;-84
2021/08/09 04:11:59;;;;;;;15.98;4.78;;;;;;;17.12;68.89;101307.78;10513725;28;20058;-83
2021/08/09 04:16:59;;;;;;;7.57;3.80;;;;;;;16.99;69.08;101281.41;10473200;28;20049;-83
2021/08/09 04:22:00;;;;;;;8.32;4.55;;;;;;;17.09;68.95;101302.75;10492220;28;20039;-84
2021/08/09 04:27:00;;;;;;;12.65;4.03;;;;;;;17.11;68.58;101309.69;10490560;28;20036;-82
2021/08/09 04:32:10;;;;;;;20.40;6.50;;;;;;;17.03;69.28;101300.94;10490199;28;20080;-83
2021/08/09 04:37:10;;;;;;;10.43;4.80;;;;;;;15.83;69.89;101127.41;10474591;28;20029;-83
2021/08/09 04:42:10;;;;;;;18.42;4.20;;;;;;;16.79;70.71;101306.28;10475570;28;20044;-83
2021/08/09 04:47:11;;;;;;;18.20;3.20;;;;;;;17.00;69.46;101310.44;10474261;28;20467;-86
2021/08/09 04:52:11;;;;;;;11.85;4.03;;;;;;;17.02;69.92;101316.53;10490914;28;20064;-84
2021/08/09 04:57:12;;;;;;;11.00;2.65;;;;;;;17.07;68.59;101313.94;10440568;28;20484;-85
2021/08/09 05:02:12;;;;;;;12.48;3.85;;;;;;;17.17;68.96;101313.41;10489859;28;20517;-83
2021/08/09 05:07:13;;;;;;;10.88;4.18;;;;;;;17.32;68.15;101318.44;10490577;28;20106;-83
2021/08/09 05:12:13;;;;;;;13.75;5.28;;;;;;;17.52;68.13;101309.97;10490954;28;20424;-83
2021/08/09 05:17:14;;;;;;;9.85;3.47;;;;;;;17.27;68.56;101290.94;10507444;28;20044;-85
2021/08/09 05:22:14;;;;;;;17.48;4.65;;;;;;;17.84;67.42;101305.88;10472989;28;20548;-84
2021/08/09 05:27:15;;;;;;;7.45;2.90;;;;;;;17.70;66.46;101233.16;10489799;28;20051;-84
2021/08/09 05:32:15;;;;;;;12.07;3.35;;;;;;;18.36;65.43;101248.44;10472050;28;20032;-85
2021/08/09 05:37:15;;;;;;;9.25;4.20;;;;;;;18.70;64.85;101250.53;10487293;28;20119;-85
2021/08/09 05:42:16;;;;;;;12.45;3.53;;;;;;;19.11;65.01;101330.94;10489868;28;20119;-85
2021/08/09 05:47:16;;;;;;;17.90;5.20;;;;;;;18.78;64.77;101327.81;10470026;28;20047;-84
2021/08/09 05:52:24;;;;;;;22.85;5.20;;;;;;;18.63;65.58;101332.94;10472932;28;20028;-84
2021/08/09 05:57:24;;;;;;;15.80;3.28;;;;;;;18.80;64.24;101218.66;10487464;28;20115;-83
2021/08/09 06:02:24;;;;;;;8.77;3.03;;;;;;;18.97;63.54;101256.31;10489597;28;20036;-84
2021/08/09 06:07:25;;;;;;;11.88;3.97;;;;;;;19.72;63.72;101332.16;10470931;28;20471;-83
2021/08/09 06:12:25;;;;;;;5.95;2.72;;;;;;;21.14;60.30;101338.94;10472697;28;20210;-85
2021/08/09 06:17:26;;;;;;;11.25;3.47;;;;;;;21.88;58.75;101320.13;10513975;28;20052;-83
2021/08/09 06:22:27;;;;;;;9.15;3.50;;;;;;;21.80;56.44;101325.03;10479911;28;20029;-84
2021/08/09 06:27:27;;;;;;;12.95;2.88;;;;;;;20.63;60.29;101335.53;10478306;28;20037;-85
2021/08/09 06:32:28;;;;;;;3.17;2.53;;;;;;;22.00;58.43;101340.09;10478436;28;20048;-85
2021/08/09 06:37:28;;;;;;;9.38;3.28;;;;;;;22.15;55.47;101320.09;10493970;28;20036;-86
2021/08/09 06:42:29;;;;;;;2.22;2.03;;;;;;;23.15;54.85;101318.16;10478988;28;20123;-85
2021/08/09 06:47:29;;;;;;;12.32;2.35;;;;;;;24.06;52.54;101321.38;10462935;28;20143;-85
2021/08/09 06:52:32;;;;;;;3.85;2.80;;;;;;;23.97;54.12;101323.03;10496864;28;20075;-86
2021/08/09 06:57:33;;;;;;;10.63;3.05;;;;;;;22.57;56.01;101336.66;10498346;28;20480;-86
2021/08/09 07:02:34;;;;;;;4.63;2.22;;;;;;;22.05;56.72;101337.38;10513624;28;20088;-85
2021/08/09 07:07:36;;;;;;;4.65;2.33;;;;;;;20.14;57.90;101197.84;10480066;28;20025;-85
2021/08/09 07:12:37;;;;;;;2.67;1.92;;;;;;;20.70;58.15;101343.59;10496260;28;20035;-85
2021/08/09 07:17:39;;;;;;;2.47;1.88;;;;;;;20.60;59.20;101325.03;10497488;28;20059;-84
2021/08/09 07:22:43;;;;;;;4.38;2.45;;;;;;;20.66;60.97;101343.28;10482141;28;20036;-85
2021/08/09 07:27:43;;;;;;;1.42;1.40;;;;;;;20.24;60.63;101326.41;10495597;28;20071;-85
2021/08/09 07:32:49;;;;;;;6.30;2.70;;;;;;;20.25;62.27;101295.06;10497399;28;20497;-85
2021/08/09 07:37:51;;;;;;;21.38;3.22;;;;;;;20.71;61.38;101325.16;10496730;28;20033;-85
2021/08/09 07:42:52;;;;;;;2.90;2.42;;;;;;;20.86;61.71;101344.63;10497320;28;20043;-84
2021/08/09 07:47:52;;;;;;;3.33;2.38;;;;;;;20.70;59.61;101276.72;10494435;28;20432;-83
2021/08/09 07:52:53;;;;;;;4.72;2.85;;;;;;;21.11;59.18;101324.84;10475619;28;20036;-85
2021/08/09 07:57:53;;;;;;;5.07;2.78;;;;;;;21.11;58.88;101295.38;10492793;28;20158;-84
2021/08/09 08:02:54;;;;;;;6.50;2.53;;;;;;;21.97;59.56;101348.91;10494480;28;20032;-84
2021/08/09 08:07:56;;;;;;;1.90;1.67;;;;;;;21.83;58.84;101194.94;10478465;28;20406;-84
2021/08/09 08:12:58;;;;;;;5.82;2.80;;;;;;;23.06;56.89;101346.59;10493106;28;20131;-84
2021/08/09 08:17:58;;;;;;;1.60;1.50;;;;;;;22.41;56.89;101321.94;10493087;28;20475;-85
2021/08/09 08:23:02;;;;;;;1.70;1.60;;;;;;;22.29;55.61;101304.75;10493924;28;20115;-84
2021/08/09 08:28:03;;;;;;;4.57;2.47;;;;;;;22.48;58.75;101333.56;10494200;28;20116;-84
2021/08/09 08:33:03;;;;;;;2.40;2.20;;;;;;;22.10;55.59;101300.72;10492944;28;20116;-83
2021/08/09 08:38:04;;;;;;;7.88;3.10;;;;;;;21.89;58.09;101328.16;10491997;28;20052;-84
2021/08/09 08:43:04;;;;;;;5.00;2.45;;;;;;;20.67;57.11;101223.84;10496556;28;20034;-83
2021/08/09 08:48:05;;;;;;;3.85;2.85;;;;;;;21.17;57.90;101306.47;10478425;28;20476;-83
2021/08/09 08:53:05;;;;;;;2.03;1.92;;;;;;;20.96;60.02;101335.66;10492352;28;20024;-83
2021/08/09 08:58:07;;;;;;;1.98;1.88;;;;;;;21.45;58.23;101347.56;10474270;28;20372;-83
2021/08/09 09:03:22;;;;;;;9.15;2.85;;;;;;;20.40;60.14;101322.78;10492605;28;20036;-83
2021/08/09 09:08:47;;;;;;;6.10;2.03;;;;;;;20.64;60.95;101363.88;10456790;28;20052;-83
2021/08/09 09:13:56;;;;;;;7.97;2.42;;;;;;;20.26;61.43;101348.13;10496280;28;20052;-83
2021/08/09 09:18:59;;;;;;;5.68;3.03;;;;;;;20.35;60.43;101349.38;10515385;28;20078;-83
2021/08/09 09:24:16;;;;;;;3.67;2.60;;;;;;;20.65;62.39;101368.31;10514535;28;20048;-83
2021/08/09 09:29:17;;;;;;;1.98;1.88;;;;;;;20.97;59.94;101340.94;10533304;28;20046;-83
2021/08/09 09:34:19;;;;;;;4.47;2.35;;;;;;;20.97;60.69;101364.88;10497558;28;20028;-83
2021/08/09 09:39:26;;;;;;;1.80;1.67;;;;;;;21.38;59.51;101355.22;10498179;28;20098;-83
2021/08/09 09:44:28;;;;;;;3.90;2.15;;;;;;;20.81;59.88;101355.59;10513587;28;20024;-82
2021/08/09 09:49:35;;;;;;;4.68;2.70;;;;;;;21.04;60.91;101316.78;10529952;28;20405;-84
2021/08/09 09:54:35;;;;;;;7.35;2.30;;;;;;;21.42;58.86;101317.78;10532745;28;20103;-83
2021/08/09 09:59:36;;;;;;;7.25;2.78;;;;;;;22.55;61.42;101347.13;10514218;28;20059;-83
2021/08/09 10:04:36;;;;;;;3.63;2.60;;;;;;;22.49;57.68;101348.19;10531241;28;20043;-83
2021/08/09 10:09:37;;;;;;;1.88;1.67;;;;;;;22.46;58.27;101349.59;10513620;28;20071;-83
2021/08/09 10:14:37;;;;;;;5.93;3.10;;;;;;;23.24;55.50;101348.06;10494162;28;20095;-83
2021/08/09 10:19:38;;;;;;;3.97;2.55;;;;;;;23.44;53.99;101321.28;10511928;28;20067;-83
2021/08/09 10:24:39;;;;;;;1.85;1.70;;;;;;;23.25;54.15;101347.75;10494978;28;20024;-82
2021/08/09 10:30:04;;;;;;;2.33;2.13;;;;;;;22.92;56.79;101282.72;10532209;28;20378;-82
2021/08/09 10:35:11;;;;;;;3.63;2.15;;;;;;;22.71;55.23;101298.34;10523763;28;20032;-82
2021/08/09 10:40:17;;;;;;;1.77;1.65;;;;;;;22.78;55.81;101295.34;10480468;28;20165;-82
2021/08/09 10:45:48;;;;;;;2.72;1.70;;;;;;;21.95;56.83;101177.34;10509901;28;20055;-82
2021/08/09 10:50:49;;;;;;;10.30;3.08;;;;;;;23.16;53.73;101341.09;10531044;28;20089;-82
2021/08/09 10:55:49;;;;;;;4.95;1.90;;;;;;;21.86;56.57;101349.88;10497700;28;20085;-82
2021/08/09 11:00:49;;;;;;;4.30;2.58;;;;;;;20.28;61.16;101395.47;10537306;28;20043;-79
2021/08/09 11:05:50;;;;;;;5.57;1.98;;;;;;;18.56;66.03;101324.84;10539483;28;20085;-76
2021/08/09 11:11:01;;;;;;;5.60;2.30;;;;;;;18.96;67.60;101336.97;10521391;28;20485;-77
2021/08/09 11:16:04;;;;;;;3.30;3.00;;;;;;;19.13;66.92;101348.84;10503659;28;20432;-77
2021/08/09 11:21:07;;;;;;;4.53;3.03;;;;;;;19.87;66.29;101386.53;10504779;28;20040;-76
2021/08/09 11:26:20;;;;;;;4.70;2.85;;;;;;;20.32;65.47;101367.22;10502964;28;20044;-77
2021/08/09 11:31:21;;;;;;;2.35;2.15;;;;;;;21.22;62.47;101372.59;10535251;28;20024;-78
2021/08/09 11:36:21;;;;;;;6.55;2.58;;;;;;;21.56;61.33;101343.00;10514381;28;20367;-78
2021/08/09 11:41:29;;;;;;;4.65;2.22;;;;;;;22.75;59.74;101372.13;10533704;28;20032;-80
2021/08/09 11:46:29;;;;;;;1.95;1.70;;;;;;;23.35;58.54;101352.50;10519083;28;20154;-80
2021/08/09 11:51:30;;;;;;;2.90;1.85;;;;;;;23.08;57.68;101336.94;10538564;28;20054;-81
2021/08/09 11:56:32;;;;;;;2.22;2.03;;;;;;;24.66;54.39;101327.91;10520169;28;20035;-84
2021/08/09 12:01:34;;;;;;;2.78;1.85;;;;;;;25.35;50.45;101256.13;10487355;28;20024;-84
2021/08/09 12:06:45;;;;;;;2.75;1.88;;;;;;;25.16;53.18;101334.38;10538216;28;20028;-85
2021/08/09 12:11:59;;;;;;;4.47;2.28;;;;;;;25.00;53.44;101330.00;10518411;28;20075;-84
2021/08/09 12:17:00;;;;;;;2.28;2.05;;;;;;;25.12;51.41;101344.41;10501909;28;20052;-84
2021/08/09 12:22:12;;;;;;;8.18;2.45;;;;;;;25.25;53.03;101351.25;10517500;28;20027;-83
2021/08/09 12:27:21;;;;;;;3.92;2.13;;;;;;;24.86;52.27;101262.50;10518275;28;20074;-84
2021/08/09 12:32:22;;;;;;;2.80;2.20;;;;;;;25.44;53.85;101343.94;10517688;28;20039;-83
2021/08/09 12:37:22;;;;;;;3.38;2.38;;;;;;;24.85;48.70;101205.41;10517031;28;20079;-83
2021/08/09 12:42:23;;;;;;;2.38;2.17;;;;;;;26.05;48.29;101327.97;10484425;28;20032;-83
2021/08/09 12:47:23;;;;;;;7.95;2.78;;;;;;;25.34;47.44;101205.38;10501158;28;20118;-84
2021/08/09 12:52:24;;;;;;;3.13;2.58;;;;;;;26.30;52.02;101329.69;10501600;28;20024;-84
2021/08/09 12:57:24;;;;;;;2.22;2.03;;;;;;;25.41;50.51;101304.88;10501314;28;20195;-83
2021/08/09 13:02:25;;;;;;;2.90;2.00;;;;;;;26.72;50.23;101358.72;10518752;28;20043;-84
2021/08/09 13:07:25;;;;;;;2.38;2.05;;;;;;;27.16;44.85;101344.59;10536274;28;20486;-84
2021/08/09 13:12:26;;;;;;;2.88;2.53;;;;;;;27.04;45.03;101327.47;10517466;28;20043;-84
2021/08/09 13:17:26;;;;;;;8.63;3.30;;;;;;;27.47;45.66;101356.13;10517171;28;20075;-84
2021/08/09 13:22:29;;;;;;;3.55;2.72;;;;;;;27.16;44.68;101363.22;10499832;28;20123;-84
2021/08/09 13:27:30;;;;;;;6.15;2.70;;;;;;;27.68;40.75;101356.63;10517092;28;20040;-84
2021/08/09 13:32:30;;;;;;;11.85;3.28;;;;;;;26.47;44.37;101324.50;10516457;28;20028;-84
2021/08/09 13:37:31;;;;;;;4.63;2.47;;;;;;;26.13;44.05;101161.66;10499894;28;20522;-84
2021/08/09 13:42:31;;;;;;;4.65;2.03;;;;;;;25.96;45.20;101327.78;10483126;28;20066;-84
2021/08/09 13:47:32;;;;;;;3.42;2.97;;;;;;;24.83;49.68;101374.69;10517050;28;20471;-82
2021/08/09 13:52:32;;;;;;;10.30;3.40;;;;;;;25.29;49.85;101366.19;10518529;28;20028;-84
2021/08/09 13:57:33;;;;;;;2.78;2.50;;;;;;;26.37;48.05;101382.94;10533981;28;20105;-84
2021/08/09 14:02:33;;;;;;;10.77;2.95;;;;;;;25.23;47.91;101328.53;10518431;28;20457;-85
2021/08/09 14:07:34;;;;;;;3.38;2.88;;;;;;;25.52;45.98;101384.91;10483214;28;20115;-85
2021/08/09 14:12:38;;;;;;;8.50;3.08;;;;;;;24.88;47.26;101360.78;10515192;28;20378;-84
2021/08/09 14:17:38;;;;;;;3.58;3.10;;;;;;;24.71;47.76;101388.00;10494132;28;20048;-85
2021/08/09 14:22:39;;;;;;;5.43;3.22;;;;;;;24.84;47.22;101370.78;10519670;28;20044;-85
2021/08/09 14:27:39;;;;;;;6.20;4.40;;;;;;;25.01;48.01;101389.84;10517683;28;20040;-84
2021/08/09 14:32:41;;;;;;;2.90;2.53;;;;;;;24.51;46.90;101256.81;10497234;28;20119;-84
2021/08/09 14:37:41;;;;;;;6.68;2.78;;;;;;;25.23;48.13;101384.78;10543372;28;20090;-85
2021/08/09 14:42:42;;;;;;;6.32;2.97;;;;;;;25.33;47.06;101391.41;10539681;28;20040;-84
2021/08/09 14:47:42;;;;;;;13.88;3.05;;;;;;;24.93;45.69;101312.88;10503731;28;20048;-83
2021/08/09 14:52:42;;;;;;;10.93;2.65;;;;;;;25.33;47.49;101388.63;10519320;28;20035;-84
2021/08/09 14:57:43;;;;;;;7.47;2.75;;;;;;;25.46;46.45;101391.63;10518410;28;20056;-84
2021/08/09 15:02:43;;;;;;;4.55;2.92;;;;;;;24.97;45.59;101391.53;10536146;28;20032;-84
2021/08/09 15:07:45;;;;;;;4.25;2.47;;;;;;;25.01;47.59;101354.66;10516630;28;20036;-84
2021/08/09 15:12:45;;;;;;;4.32;2.45;;;;;;;24.80;46.48;101342.00;10516474;28;20043;-84
2021/08/09 15:17:45;;;;;;;5.28;2.83;;;;;;;25.42;46.55;101389.69;10516319;28;20463;-83
2021/08/09 15:22:46;;;;;;;7.28;3.20;;;;;;;25.48;43.53;101394.09;10534745;28;20086;-84
2021/08/09 15:27:46;;;;;;;3.65;2.25;;;;;;;24.96;46.11;101395.41;10536383;28;20118;-84
2021/08/09 15:32:47;;;;;;;8.75;2.97;;;;;;;24.82;49.77;101397.94;10519742;28;20032;-83
2021/08/09 15:37:47;;;;;;;8.90;3.22;;;;;;;24.31;46.49;101403.53;10518757;28;20051;-83
2021/08/09 15:42:48;;;;;;;7.47;2.45;;;;;;;24.37;47.45;101394.94;10487032;28;20032;-83
2021/08/09 15:47:48;;;;;;;9.68;4.43;;;;;;;23.93;49.73;101404.88;10537166;28;20044;-84
2021/08/09 15:52:48;;;;;;;10.73;3.25;;;;;;;24.04;48.90;101399.09;10502312;28;20515;-83
2021/08/09 15:57:49;;;;;;;6.85;4.32;;;;;;;23.87;49.61;101379.19;10518299;28;20052;-83
2021/08/09 16:02:49;;;;;;;8.05;3.38;;;;;;;24.43;47.87;101378.34;10518621;28;20471;-83
2021/08/09 16:07:50;;;;;;;4.65;3.13;;;;;;;24.12;48.48;101397.72;10499442;28;20048;-83
2021/08/09 16:12:50;;;;;;;9.20;3.33;;;;;;;23.86;48.91;101405.97;10515252;28;20084;-83
2021/08/09 16:17:51;;;;;;;13.15;3.03;;;;;;;23.66;49.27;101403.16;10517653;28;20139;-82
2021/08/09 16:22:51;;;;;;;9.27;2.92;;;;;;;23.08;49.65;101392.19;10500404;28;20059;-83
2021/08/09 16:27:52;;;;;;;7.47;3.15;;;;;;;22.92;52.17;101391.25;10535068;28;20082;-83
2021/08/09 16:32:52;;;;;;;15.60;3.95;;;;;;;22.96;50.42;101431.06;10516053;28;20337;-83
2021/08/09 16:37:53;;;;;;;10.30;3.33;;;;;;;22.18;51.92;101298.34;10482154;28;20043;-83
2021/08/09 16:42:53;;;;;;;10.73;4.35;;;;;;;21.42;52.44;101267.38;10514486;28;20190;-82
2021/08/09 16:47:54;;;;;;;2.83;2.33;;;;;;;22.30;52.07;101411.25;10514330;28;20087;-82
2021/08/09 16:52:54;;;;;;;9.73;2.50;;;;;;;21.99;51.64;101317.22;10534224;28;20067;-83
2021/08/09 16:57:55;;;;;;;4.03;3.08;;;;;;;22.55;51.95;101385.78;10482147;28;20043;-83
2021/08/09 17:02:56;;;;;;;3.63;2.63;;;;;;;22.29;53.33;101398.56;10517801;28;20065;-82
2021/08/09 17:07:57;;;;;;;2.33;2.20;;;;;;;22.15;53.52;101380.78;10521430;28;20047;-83
2021/08/09 17:12:57;;;;;;;28.50;8.73;;;;;;;21.76;54.40;101345.97;10506005;28;20111;-83
2021/08/09 17:17:58;;;;;;;5.22;3.72;;;;;;;21.93;53.85;101417.53;10496731;28;20431;-83
2021/08/09 17:22:58;;;;;;;5.82;4.40;;;;;;;21.89;54.22;101416.41;10491049;28;20500;-83
2021/08/09 17:27:59;;;;;;;17.15;4.10;;;;;;;22.05;54.86;101428.41;10488058;28;20044;-82
2021/08/09 17:32:59;;;;;;;9.75;3.33;;;;;;;21.76;56.91;101422.31;10488760;28;20025;-82
2021/08/09 17:38:01;;;;;;;12.27;3.38;;;;;;;21.30;54.38;101300.53;10489704;28;20060;-83
2021/08/09 17:43:01;;;;;;;6.93;2.80;;;;;;;21.99;53.67;101426.69;10513539;28;20029;-83
2021/08/09 17:48:02;;;;;;;6.95;3.67;;;;;;;21.85;55.39;101433.69;10496248;28;20040;-83
2021/08/09 17:53:02;;;;;;;6.20;2.80;;;;;;;21.78;54.39;101439.44;10479414;28;20036;-83
2021/08/09 17:58:03;;;;;;;14.68;2.53;;;;;;;21.53;54.35;101420.69;10495702;28;20045;-82
2021/08/09 18:03:03;;;;;;;9.20;3.25;;;;;;;21.46;55.26;101442.09;10491507;28;20054;-83
2021/08/09 18:08:05;;;;;;;6.78;3.15;;;;;;;21.06;55.57;101418.44;10490544;28;20348;-82
2021/08/09 18:13:05;;;;;;;5.57;2.75;;;;;;;21.17;56.81;101447.75;10500675;28;20063;-82
2021/08/09 18:18:06;;;;;;;9.23;3.58;;;;;;;20.63;56.27;101376.81;10538003;28;20273;-83
2021/08/09 18:23:07;;;;;;;9.43;3.05;;;;;;;20.90;55.99;101370.59;10545722;28;20043;-82
2021/08/09 18:28:07;;;;;;;13.18;4.07;;;;;;;21.18;56.54;101451.34;10546500;28;20152;-83
2021/08/09 18:33:09;;;;;;;7.60;2.45;;;;;;;21.05;56.88;101455.28;10527485;28;20040;-82
2021/08/09 18:38:09;;;;;;;15.40;2.92;;;;;;;20.88;57.02;101447.91;10523335;28;20432;-82
2021/08/09 18:43:09;;;;;;;14.93;3.63;;;;;;;20.76;57.50;101466.44;10541076;28;20149;-83
2021/08/09 18:48:10;;;;;;;13.15;3.25;;;;;;;20.64;56.92;101472.06;10522950;28;20402;-82
2021/08/09 18:53:11;;;;;;;9.82;3.63;;;;;;;20.52;56.35;101468.53;10505053;28;20040;-82
2021/08/09 18:58:11;;;;;;;4.50;2.63;;;;;;;20.31;55.57;101448.06;10521401;28;20484;-82
2021/08/09 19:03:14;;;;;;;4.88;2.72;;;;;;;20.21;55.00;101445.97;10505302;28;20471;-81
2021/08/09 19:08:14;;;;;;;3.88;2.95;;;;;;;20.29;55.67;101466.72;10521280;28;20040;-82
2021/08/09 19:13:15;;;;;;;6.30;2.80;;;;;;;20.11;54.39;101458.72;10521334;28;20032;-80
2021/08/09 19:18:18;;;;;;;8.35;3.67;;;;;;;19.91;55.30;101467.41;10504207;28;20040;-81
2021/08/09 19:23:19;;;;;;;9.82;2.53;;;;;;;19.74;56.32;101432.47;10539562;28;20036;-82
2021/08/09 19:28:19;;;;;;;5.93;2.67;;;;;;;19.80;55.98;101471.06;10539419;28;20027;-82
2021/08/09 19:33:20;;;;;;;2.13;1.92;;;;;;;19.76;54.86;101450.66;10540577;28;20047;-81
2021/08/09 19:38:20;;;;;;;5.40;1.98;;;;;;;19.31;55.67;101393.69;10503927;28;20047;-81
2021/08/09 19:43:21;;;;;;;2.80;1.48;;;;;;;19.80;55.43;101476.56;10535688;28;20031;-81
2021/08/09 19:48:22;;;;;;;13.90;2.30;;;;;;;19.70;55.98;101479.94;10515157;28;20075;-81
2021/08/09 19:53:23;;;;;;;4.90;3.03;;;;;;;19.62;56.33;101485.78;10515648;28;20119;-82
2021/08/09 19:58:23;;;;;;;13.88;3.83;;;;;;;19.22;57.75;101492.91;10515051;28;20127;-82
2021/08/09 20:03:24;;;;;;;8.77;3.35;;;;;;;19.40;58.23;101483.69;10533540;28;20157;-81
2021/08/09 20:08:25;;;;;;;35.17;16.92;;;;;;;19.18;56.75;101486.25;10497007;28;20046;-81
2021/08/09 20:13:25;;;;;;;19.63;3.67;;;;;;;19.60;56.67;101508.00;10531790;28;20046;-81
2021/08/09 20:18:25;;;;;;;5.05;2.13;;;;;;;19.41;57.84;101499.09;10512560;28;20215;-80
2021/08/09 20:23:26;;;;;;;5.88;2.42;;;;;;;19.02;57.28;101418.34;10496683;28;20028;-81
2021/08/09 20:28:26;;;;;;;14.80;4.03;;;;;;;19.28;58.00;101477.38;10497486;28;20127;-81
2021/08/09 20:33:27;;;;;;;5.57;3.28;;;;;;;19.42;58.00;101488.94;10516506;28;20363;-82
2021/08/09 20:38:29;;;;;;;17.17;3.25;;;;;;;19.33;58.37;101490.38;10531935;28;20115;-82
2021/08/09 20:43:29;;;;;;;9.25;2.65;;;;;;;18.69;58.69;101392.31;10514117;28;20043;-82
2021/08/09 20:48:30;;;;;;;10.07;3.95;;;;;;;18.51;58.86;101376.84;10514857;28;20110;-81
2021/08/09 20:53:30;;;;;;;6.35;2.70;;;;;;;19.07;59.08;101467.84;10531661;28;20040;-81
2021/08/09 20:58:31;;;;;;;18.33;3.15;;;;;;;19.19;59.27;101509.88;10497021;28;20044;-81
2021/08/09 21:03:32;;;;;;;3.53;2.95;;;;;;;19.12;60.04;101491.84;10496630;28;20097;-82
2021/08/09 21:08:32;;;;;;;9.27;3.30;;;;;;;19.15;59.88;101486.72;10532279;28;20036;-82
2021/08/09 21:13:33;;;;;;;12.13;4.47;;;;;;;19.08;59.93;101487.91;10532795;28;20394;-81
2021/08/09 21:18:35;;;;;;;5.45;2.80;;;;;;;19.12;60.65;101495.44;10533427;28;20063;-82
2021/08/09 21:23:36;;;;;;;13.43;3.05;;;;;;;18.34;60.12;101387.66;10531483;28;20079;-82
2021/08/09 21:28:36;;;;;;;8.85;2.97;;;;;;;19.18;60.29;101497.22;10514773;28;20377;-81
2021/08/09 21:33:37;;;;;;;4.57;2.90;;;;;;;19.07;60.88;101495.31;10499058;28;20119;-82
2021/08/09 21:38:37;;;;;;;5.55;3.42;;;;;;;18.48;62.09;101399.25;10531105;28;20039;-82
2021/08/09 21:43:38;;;;;;;15.40;4.00;;;;;;;19.08;61.18;101499.75;10533365;28;20043;-82
2021/08/09 21:48:38;;;;;;;5.55;2.60;;;;;;;19.01;61.32;101496.25;10514710;28;20075;-82
2021/08/09 21:53:39;;;;;;;14.93;3.65;;;;;;;19.07;61.45;101492.56;10531178;28;20040;-82
2021/08/09 21:58:39;;;;;;;7.05;3.65;;;;;;;19.03;60.80;101494.13;10532958;28;20075;-82
2021/08/09 22:03:39;;;;;;;8.55;2.42;;;;;;;19.05;61.10;101498.31;10531004;28;20024;-82
2021/08/09 22:08:40;;;;;;;7.00;2.47;;;;;;;18.73;61.70;101495.09;10511025;28;20090;-82
2021/08/09 22:13:41;;;;;;;5.68;2.30;;;;;;;18.83;60.79;101485.44;10511780;28;20032;-82
2021/08/09 22:18:41;;;;;;;10.68;3.50;;;;;;;18.71;61.54;101480.72;10494490;28;20076;-81
2021/08/09 22:23:42;;;;;;;6.03;3.00;;;;;;;18.43;60.82;101431.19;10512003;28;20436;-81
2021/08/09 22:28:43;;;;;;;8.88;3.15;;;;;;;18.23;62.42;101462.53;10512191;28;20131;-81
2021/08/09 22:33:43;;;;;;;10.27;3.25;;;;;;;18.68;61.44;101481.19;10530112;28;20518;-82
2021/08/09 22:38:44;;;;;;;6.13;2.40;;;;;;;18.61;61.97;101477.75;10511793;28;20472;-82
2021/08/09 22:43:45;;;;;;;7.90;2.97;;;;;;;18.54;62.31;101491.56;10512680;28;20507;-81
2021/08/09 22:48:45;;;;;;;9.48;3.83;;;;;;;18.60;62.45;101478.78;10511580;28;20036;-81
2021/08/09 22:53:45;;;;;;;4.95;3.03;;;;;;;18.38;62.91;101459.34;10511667;28;20044;-82
2021/08/09 22:58:46;;;;;;;2.50;2.10;;;;;;;18.54;62.09;101483.34;10539797;28;20063;-83